x

Edisto - 41 Nm Southeast Of Charleston, Sc (41004) Wave Buoy

3:50am - Sat 25th Feb 2017 All times are EST. -5 hours from GMT.

  • Sig Wave height 7.2ft
  • Swell Direction
  • Peak Period 10s
  • Average Period 8s
  • Wind
    4mph, 7mph gusts
  • Sea Temp 71°f
  • Air Temp 68°f
  • Sea Pressure 1008.3mb
  • Edisto - 41 Nm Southeast Of Charleston, Sc
  • Edisto - 41 Nm Southeast Of Charleston, Sc

More Historic Weather Station data

Upgrade to MSW Pro to gain access to the past 30 days of data for over 8000 Wavebouys and Weather Stations around the globe.

Join Pro

Comparision Forecast

View Surf forecast
   
Sat 02/25 3:50am 7ft 10s 8s 4 7 mph 1008.3mb 71f 68f
2:50am 7ft 11s 8s 4 7 mph 1009.1mb 71f 69f
1:50am 8ft 10s 8s 7 9 mph 1009.8mb 71f 69f
12:50am 8ft 10s 8s 4 7 mph 1010.1mb 70f 69f
Fri 02/24 11:50pm 7.5ft 10s 8s  -  2 mph 1010.2mb 71f 69f
10:50pm 6ft 11s 7s 2 4 mph 1010.2mb 71f 69f
9:50pm 7ft 10s 8s 7
mph
1010.3mb 71f 69f
8:50pm 7ft 11s 8s 7
mph
1010.4mb 71f 69f
7:50pm 7ft 11s 8s 9 11 mph 1010.2mb 71f 69f
6:50pm 8ft 11s 8s 11 13 mph 1010.1mb 71f 69f
5:50pm 6.5ft 10s 7s 13 16 mph 1009.7mb 71f 69f
4:50pm 7ft 10s 7s 13 16 mph 1009.6mb 71f 69f
3:50pm 7.5ft 11s 7s 13 16 mph 1009.5mb 71f 69f
2:50pm 8ft 10s 7s 13 18 mph 1009.6mb 71f 68f
1:50pm 8ft 10s 7s 16 18 mph 1010mb 71f 68f
12:50pm 8ft 11s 7s 16 18 mph 1010.5mb 70f 68f
11:50am 9ft 11s 8s 16 18 mph 1011.3mb 70f 68f
10:50am 9ft 10s 8s 13 18 mph 1011.8mb 70f 68f
9:50am 9.5ft 11s 8s 9 11 mph 1011.6mb 70f 70f
8:50am 10ft 11s 8s 9 11 mph 1011mb 70f 71f
7:50am 10ft 11s 8s 11 13 mph 1010.4mb 70f 70f
6:50am 10ft 11s 8s 9 11 mph 1010.1mb 70f 69f
5:50am 9ft 10s 8s 11 13 mph 1009.9mb 70f 69f
4:50am 8.5ft 10s 7s 9 11 mph 1009.7mb 70f 70f
3:50am 9ft 11s 7s 11 13 mph 1009.7mb 70f 70f
2:50am 10ft 10s 8s 13 16 mph 1009.7mb 70f 71f
1:50am 9.5ft 10s 7s 11 13 mph 1009.8mb 70f 70f
12:50am 10ft 10s 7s 11 13 mph 1010.1mb 70f 71f
Thu 02/23 11:50pm 10ft 11s 7s 13 16 mph 1010.2mb 70f 71f
10:50pm 9ft 10s 7s 16 18 mph 1010.5mb 70f 70f
9:50pm 10ft 10s 7s 16 18 mph 1010.3mb 70f 71f
8:50pm 9ft 9s 7s 13 16 mph 1009.8mb 69f 71f
7:50pm 9ft 9s 7s 16 18 mph 1009.6mb 70f 71f
6:50pm 8.5ft 8s 7s 13 18 mph 1009.4mb 70f 71f
5:50pm 9.5ft 9s 7s 16 20 mph 1009mb 70f 71f
4:50pm 8ft 8s 6s 18 20 mph 1008.5mb 70f 71f
3:50pm 9ft 8s 6s 16 18 mph 1008.4mb 70f 70f
2:50pm 9ft 8s 6s 18 22 mph 1008.4mb 70f 71f
12:50pm 8ft 8s 6s 18 20 mph 1009.7mb 69f 71f
11:50am 7ft 8s 6s 18 22 mph 1010.4mb 69f 71f
10:50am 7.5ft 9s 6s 18 22 mph 1010.7mb 69f 70f
9:50am 7.5ft 8s 6s 18 22 mph 1010.7mb 69f 71f
8:50am 7.5ft 8s 6s 18 20 mph 1010.2mb 69f 71f
7:50am 7ft 8s 6s 16 20 mph 1009.8mb 69f 71f
6:50am 7ft 7s 6s 16 18 mph 1009.3mb 69f 71f
5:50am 6ft 7s 6s 18 22 mph 1009.1mb 70f 71f
4:50am 7ft 8s 6s 18 20 mph 1008.7mb 70f 70f
3:50am 6ft 7s 6s 18 22 mph 1008.2mb 69f 70f
2:50am 6ft 7s 5s 18 20 mph 1008.7mb 69f 70f
1:50am 6ft 7s 5s 18 20 mph 1009.4mb 69f 70f
12:50am 6ft 7s 5s 18 22 mph 1009.9mb 69f 70f
Wed 02/22 11:50pm 6ft 6s 5s 16 20 mph 1010.4mb 70f 70f
10:50pm 6ft 7s 5s 18 22 mph 1010.6mb 70f 70f
9:50pm 6ft 7s 5s 18 22 mph 1011.3mb 70f 70f
8:50pm 6ft 6s 5s 20 25 mph 1011.5mb 70f 70f
7:50pm 6ft 6s 5s 20 25 mph 1011.2mb 70f 70f
6:50pm 6ft 7s 5s 20 25 mph 1010.9mb 70f 69f
5:50pm 6ft 7s 5s 22 27 mph 1010.2mb 70f 69f
4:50pm 5.5ft 6s 5s 22 29 mph 1010.5mb 70f 69f
3:50pm 5.5ft 6s 5s 22 27 mph 1010.9mb 70f 69f
2:50pm 5ft 5s 5s 22 27 mph 1010.8mb 70f 70f
1:50pm 5ft 5s 5s 20 25 mph 1011.1mb 70f 68f
12:50pm 5ft 6s 5s 25 27 mph 1012.3mb 70f 68f
11:50am 4.5ft 5s 4s 20 25 mph 1012.9mb 70f 70f
10:50am 4.5ft 5s 4s 22 27 mph 1013.3mb 69f 70f
9:50am 4.5ft 5s 4s 20 25 mph 1013.7mb 69f 70f
8:50am 4.5ft 6s 4s 20 22 mph 1013.7mb 69f 70f
7:50am 4.5ft 5s 5s 22 27 mph 1013.7mb 69f 68f
5:50am 4.5ft 5s 4s 20 22 mph 1013.8mb 69f 69f
4:50am 4ft 6s 4s 20 22 mph 1013.9mb 69f 69f
3:50am 4ft 5s 4s 20 25 mph 1013.9mb 69f 69f
2:50am 4.5ft 5s 4s 20 22 mph 1014.2mb 69f 69f
1:50am 4ft 5s 4s 18 22 mph 1014.8mb 69f 70f
12:50am 4ft 5s 4s 16 20 mph 1015.6mb 69f 69f
Tue 02/21 11:50pm 4.5ft 6s 4s 13 16 mph 1016.3mb 69f 70f
10:50pm 4ft 5s 4s 16 20 mph 1016.9mb 69f 70f
9:50pm 4.5ft 5s 4s 16 18 mph 1017.3mb 69f 70f
8:50pm 4ft 6s 4s 18 20 mph 1017.5mb 69f 70f
7:50pm 4ft 6s 4s 18 20 mph 1017.4mb 69f 70f
6:50pm 3.5ft 6s 4s 16 20 mph 1017.9mb 69f 70f
5:50pm 4ft 6s 4s 18 22 mph 1017.5mb 69f 70f
4:50pm 3.5ft 6s 4s 18 20 mph 1017.6mb 69f 70f
3:50pm 3.5ft 6s 4s 18 22 mph 1017.7mb 69f 70f
2:50pm 3.5ft 6s 4s 20 22 mph 1017.8mb 69f 70f
1:50pm 3.5ft 6s 4s 20
mph
1018.3mb 69f 70f
12:50pm 3.5ft 6s 4s 18 22 mph 1019.4mb 68f 70f
11:50am 4ft 6s 5s 18 20 mph 1020.4mb 66f 69f
10:50am 4ft 6s 4s 18 20 mph 1021.4mb 66f 69f